TimeEST,TemperatureF,Dew PointF,Humidity,Sea Level PressureIn,VisibilityMPH,Wind Direction,Wind SpeedMPH,Gust SpeedMPH,PrecipitationIn,Events,Conditions,WindDirDegrees,DateUTC
12:15 AM,41.0,40.5,98,29.60,10.0,South,11.5,16.1,N/A,Rain,Light Rain,190,2014-01-11 05:15:00
12:34 AM,41.2,40.5,97,29.59,10.0,South,11.5,18.4,N/A,Rain,Rain,180,2014-01-11 05:34:00
12:55 AM,40.6,39.9,97,29.56,10.0,South,12.7,17.3,N/A,,Drizzle,180,2014-01-11 05:55:00
1:15 AM,40.1,39.2,97,29.56,10.0,South,10.4,18.4,N/A,,Overcast,170,2014-01-11 06:15:00
1:34 AM,40.3,39.6,97,29.55,10.0,South,10.4,18.4,N/A,,Overcast,180,2014-01-11 06:34:00
1:55 AM,40.3,39.6,97,29.55,10.0,SSW,9.2,-,N/A,,Overcast,200,2014-01-11 06:55:00
2:15 AM,40.1,39.4,97,29.55,5.0,SSW,9.2,-,N/A,,Overcast,200,2014-01-11 07:15:00
2:34 AM,39.9,39.4,98,29.55,3.0,SSW,9.2,-,N/A,Rain,Light Rain,210,2014-01-11 07:34:00
2:55 AM,40.5,40.1,99,29.54,3.0,SSW,11.5,-,N/A,Rain,Light Rain,200,2014-01-11 07:55:00
3:15 AM,41.0,40.3,97,29.52,2.0,SSW,6.9,17.3,N/A,,Overcast,200,2014-01-11 08:15:00
3:34 AM,41.0,40.5,98,29.50,1.0,South,8.1,-,N/A,,Overcast,190,2014-01-11 08:34:00
3:55 AM,40.8,40.3,98,29.50,0.8,South,10.4,-,N/A,,Overcast,190,2014-01-11 08:55:00
4:15 AM,40.6,40.1,98,29.48,0.5,South,5.8,-,N/A,Fog,Fog,190,2014-01-11 09:15:00
4:35 AM,40.6,40.1,98,29.48,0.5,SSW,8.1,-,N/A,Fog,Fog,200,2014-01-11 09:35:00
4:55 AM,40.3,39.7,98,29.46,0.5,SSW,6.9,16.1,N/A,Fog,Fog,200,2014-01-11 09:55:00
5:14 AM,41.0,40.5,98,29.45,0.8,South,8.1,-,N/A,,Overcast,190,2014-01-11 10:14:00
5:35 AM,41.0,40.3,97,29.44,0.8,South,9.2,-,N/A,,Overcast,170,2014-01-11 10:35:00
5:55 AM,40.3,39.7,98,29.42,0.8,South,8.1,-,N/A,,Overcast,170,2014-01-11 10:55:00
6:14 AM,40.5,40.1,99,29.43,0.8,SSW,6.9,-,N/A,,Overcast,210,2014-01-11 11:14:00
6:35 AM,40.5,39.9,98,29.41,0.8,SSW,5.8,-,N/A,Rain,Light Rain,200,2014-01-11 11:35:00
6:55 AM,40.3,39.9,99,29.41,0.8,SSW,5.8,-,N/A,Rain,Light Rain,200,2014-01-11 11:55:00
7:14 AM,39.7,39.2,98,29.41,1.8,SSW,9.2,-,N/A,Rain,Light Rain,210,2014-01-11 12:14:00
7:35 AM,39.6,39.0,98,29.40,1.2,SSW,9.2,-,N/A,,Overcast,210,2014-01-11 12:35:00
7:54 AM,39.6,39.0,98,29.39,3.0,SW,6.9,-,N/A,Rain,Light Rain,220,2014-01-11 12:54:00
8:15 AM,39.9,39.4,98,29.39,2.5,SW,9.2,-,N/A,Rain,Light Rain,220,2014-01-11 13:15:00
8:35 AM,40.1,39.6,98,29.39,1.8,SW,9.2,-,N/A,,Overcast,230,2014-01-11 13:35:00
8:54 AM,39.9,39.2,97,29.38,3.0,SW,9.2,-,N/A,Rain,Rain,230,2014-01-11 13:54:00
9:15 AM,39.6,39.0,98,29.38,4.0,WSW,10.4,-,N/A,Rain,Rain,240,2014-01-11 14:15:00
9:35 AM,39.2,38.5,97,29.39,5.0,WSW,8.1,-,N/A,Rain,Light Rain,240,2014-01-11 14:35:00
9:54 AM,38.5,38.1,99,29.39,5.0,WSW,9.2,-,N/A,,Overcast,240,2014-01-11 14:54:00
10:15 AM,38.5,37.9,98,29.39,1.5,WSW,10.4,-,N/A,,Overcast,250,2014-01-11 15:15:00
10:35 AM,38.3,37.6,97,29.39,1.8,WSW,10.4,-,N/A,,Overcast,250,2014-01-11 15:35:00
10:54 AM,37.9,37.4,98,29.39,0.5,WSW,11.5,-,N/A,Fog,Fog,250,2014-01-11 15:54:00
11:15 AM,37.6,37.4,99,29.39,0.2,WSW,11.5,18.4,N/A,Fog,Fog,250,2014-01-11 16:15:00
11:34 AM,37.4,37.0,99,29.39,0.2,West,16.1,20.7,N/A,Fog,Fog,270,2014-01-11 16:34:00
11:55 AM,36.7,36.5,99,29.39,5.0,West,15.0,23.0,N/A,,Overcast,280,2014-01-11 16:55:00
12:15 PM,36.0,35.6,99,29.39,2.5,West,10.4,-,N/A,,Overcast,270,2014-01-11 17:15:00
12:35 PM,35.4,34.9,98,29.38,5.0,West,18.4,-,N/A,,Overcast,270,2014-01-11 17:35:00
12:55 PM,34.9,34.3,98,29.39,10.0,West,13.8,19.6,N/A,,Overcast,260,2014-01-11 17:55:00
1:14 PM,34.3,33.8,98,29.39,7.0,West,21.9,27.6,N/A,,Overcast,260,2014-01-11 18:14:00
1:35 PM,34.0,33.1,96,29.40,10.0,West,21.9,27.6,N/A,,Overcast,270,2014-01-11 18:35:00
1:55 PM,33.8,32.7,96,29.40,5.0,West,15.0,-,N/A,,Overcast,260,2014-01-11 18:55:00
2:14 PM,33.4,32.4,96,29.41,4.0,West,15.0,19.6,N/A,Snow,Light Snow,260,2014-01-11 19:14:00
2:35 PM,33.4,32.2,95,29.42,7.0,West,15.0,23.0,N/A,,Overcast,260,2014-01-11 19:35:00
2:55 PM,33.8,32.0,93,29.42,10.0,West,16.1,19.6,N/A,,Overcast,270,2014-01-11 19:55:00
3:14 PM,33.6,32.0,94,29.43,10.0,West,15.0,19.6,N/A,,Overcast,260,2014-01-11 20:14:00
3:35 PM,33.6,32.0,94,29.44,10.0,West,19.6,26.5,N/A,,Overcast,260,2014-01-11 20:35:00
3:55 PM,33.1,32.0,96,29.46,7.0,West,18.4,25.3,N/A,,Overcast,270,2014-01-11 20:55:00
4:14 PM,33.1,32.0,96,29.47,10.0,West,15.0,23.0,N/A,,Overcast,270,2014-01-11 21:14:00
4:35 PM,33.1,31.8,95,29.48,10.0,West,16.1,25.3,N/A,,Overcast,270,2014-01-11 21:35:00
4:55 PM,33.1,31.8,95,29.50,10.0,West,15.0,24.2,N/A,,Overcast,270,2014-01-11 21:55:00
5:15 PM,33.1,31.3,93,29.51,7.0,West,15.0,23.0,N/A,,Overcast,270,2014-01-11 22:15:00
5:35 PM,32.9,31.5,94,29.52,5.0,West,13.8,23.0,N/A,,Overcast,260,2014-01-11 22:35:00
5:54 PM,32.9,30.7,92,29.53,10.0,West,17.3,24.2,N/A,,Overcast,270,2014-01-11 22:54:00
6:15 PM,32.9,30.2,90,29.54,10.0,West,15.0,21.9,N/A,,Overcast,280,2014-01-11 23:15:00
6:35 PM,32.9,29.3,87,29.55,10.0,West,15.0,21.9,N/A,,Overcast,280,2014-01-11 23:35:00
6:54 PM,32.9,29.3,87,29.56,10.0,West,13.8,25.3,N/A,,Overcast,270,2014-01-11 23:54:00
7:15 PM,32.4,28.9,87,29.57,10.0,West,19.6,24.2,N/A,,Overcast,270,2014-01-12 00:15:00
7:34 PM,32.4,28.9,87,29.58,10.0,West,16.1,23.0,N/A,,Overcast,270,2014-01-12 00:34:00
7:55 PM,32.4,28.0,84,29.59,10.0,West,17.3,25.3,N/A,,Overcast,280,2014-01-12 00:55:00
8:15 PM,32.2,28.6,87,29.59,10.0,West,15.0,19.6,N/A,,Overcast,270,2014-01-12 01:15:00
8:34 PM,32.4,28.4,85,29.60,10.0,West,13.8,23.0,N/A,,Overcast,270,2014-01-12 01:34:00
8:55 PM,32.0,29.3,90,29.61,7.0,West,15.0,19.6,N/A,,Overcast,270,2014-01-12 01:55:00
9:15 PM,32.0,29.8,92,29.62,7.0,West,11.5,-,N/A,,Overcast,270,2014-01-12 02:15:00
9:34 PM,32.0,29.8,92,29.63,7.0,West,11.5,-,N/A,,Overcast,270,2014-01-12 02:34:00
9:55 PM,32.0,30.0,92,29.64,7.0,West,15.0,20.7,N/A,,Overcast,280,2014-01-12 02:55:00
10:14 PM,32.2,29.1,88,29.65,7.0,West,15.0,21.9,N/A,,Overcast,280,2014-01-12 03:14:00
10:35 PM,32.0,29.3,90,29.65,7.0,West,20.7,26.5,N/A,,Overcast,270,2014-01-12 03:35:00
10:54 PM,32.0,29.7,91,29.66,5.0,West,11.5,23.0,N/A,,Overcast,270,2014-01-12 03:54:00
11:15 PM,32.0,30.0,92,29.67,5.0,West,13.8,-,N/A,,Overcast,280,2014-01-12 04:15:00
11:35 PM,32.0,29.8,92,29.68,7.0,West,12.7,20.7,N/A,,Overcast,270,2014-01-12 04:35:00
11:54 PM,32.0,30.0,92,29.67,5.0,West,11.5,17.3,N/A,,Overcast,280,2014-01-12 04:54:00